createdAt,value
2018-09-02T00:01:56.743Z,3.13
2018-09-02T00:04:25.284Z,3.30
2018-09-02T00:06:53.851Z,2.90
2018-09-02T00:09:22.424Z,3.13
2018-09-02T00:11:50.967Z,3.03
2018-09-02T00:14:19.557Z,3.03
2018-09-02T00:16:48.138Z,3.07
2018-09-02T00:19:17.233Z,3.00
2018-09-02T00:21:45.748Z,2.90
2018-09-02T00:24:14.347Z,3.00
2018-09-02T00:26:42.919Z,3.00
2018-09-02T00:29:11.503Z,3.00
2018-09-02T00:31:40.017Z,2.90
2018-09-02T00:34:08.532Z,2.80
2018-09-02T00:36:37.071Z,3.13
2018-09-02T00:39:07.851Z,3.30
2018-09-02T00:41:37.032Z,2.93
2018-09-02T00:44:05.670Z,3.07
2018-09-02T00:46:34.257Z,2.83
2018-09-02T00:49:02.963Z,3.03
2018-09-02T00:51:31.530Z,3.00
2018-09-02T00:54:00.114Z,2.67
2018-09-02T00:56:28.634Z,2.57
2018-09-02T00:58:57.194Z,3.27
2018-09-02T01:01:25.719Z,2.63
2018-09-02T01:03:54.270Z,2.57
2018-09-02T01:06:22.923Z,2.57
2018-09-02T01:08:51.439Z,2.80
2018-09-02T01:11:19.939Z,2.90
2018-09-02T01:13:48.462Z,3.00
2018-09-02T01:16:17.025Z,3.20
2018-09-02T01:18:45.587Z,2.77
2018-09-02T01:21:14.114Z,3.00
2018-09-02T01:23:42.747Z,3.00
2018-09-02T01:26:11.349Z,3.20
2018-09-02T01:28:39.899Z,2.80
2018-09-02T01:31:08.423Z,3.10
2018-09-02T01:33:36.995Z,3.10
2018-09-02T01:36:05.692Z,2.90
2018-09-02T01:38:34.239Z,2.87
2018-09-02T01:41:02.806Z,2.83
2018-09-02T01:43:31.390Z,2.80
2018-09-02T01:45:59.893Z,2.80
2018-09-02T01:48:28.486Z,2.97
2018-09-02T01:50:58.159Z,2.70
2018-09-02T01:53:26.927Z,3.00
2018-09-02T01:55:55.536Z,2.83
2018-09-02T01:58:24.089Z,2.93
2018-09-02T02:00:52.607Z,2.80
2018-09-02T02:03:21.129Z,3.00
2018-09-02T02:05:49.692Z,2.80
2018-09-02T02:08:18.270Z,2.77
2018-09-02T02:10:46.834Z,2.90
2018-09-02T02:13:15.314Z,2.90
2018-09-02T02:15:43.852Z,2.87
2018-09-02T02:18:12.414Z,3.10
2018-09-02T02:20:40.989Z,2.90
2018-09-02T02:23:09.538Z,2.97
2018-09-02T02:25:38.119Z,3.50
2018-09-02T02:28:06.739Z,3.03
2018-09-02T02:30:35.238Z,2.80
2018-09-02T02:33:03.862Z,2.93
2018-09-02T02:35:32.492Z,3.07
2018-09-02T02:38:01.037Z,2.80
2018-09-02T02:40:29.587Z,2.80
2018-09-02T02:42:58.165Z,3.00
2018-09-02T02:45:26.666Z,3.20
2018-09-02T02:47:55.193Z,2.97
2018-09-02T02:50:23.742Z,2.90
2018-09-02T02:52:57.309Z,2.80
2018-09-02T02:55:25.848Z,2.57
2018-09-02T02:57:54.405Z,3.10
2018-09-02T03:00:22.932Z,2.90
2018-09-02T03:02:51.413Z,2.93
2018-09-02T03:05:19.902Z,3.03
2018-09-02T03:07:48.423Z,2.97
2018-09-02T03:10:17.193Z,3.20
2018-09-02T03:12:45.813Z,3.07
2018-09-02T03:15:14.355Z,2.97
2018-09-02T03:17:42.898Z,2.90
2018-09-02T03:20:11.435Z,2.80
2018-09-02T03:22:39.930Z,2.60
2018-09-02T03:25:08.475Z,3.03
2018-09-02T03:27:37.024Z,2.80
2018-09-02T03:30:05.563Z,2.93
2018-09-02T03:32:34.090Z,2.83
2018-09-02T03:35:02.579Z,2.83
2018-09-02T03:37:31.088Z,2.90
2018-09-02T03:39:59.598Z,2.90
2018-09-02T03:42:28.131Z,2.93
2018-09-02T03:44:56.678Z,2.93
2018-09-02T03:47:25.220Z,2.60
2018-09-02T03:49:53.831Z,2.60
2018-09-02T03:52:22.396Z,2.80
2018-09-02T03:54:50.890Z,2.80
2018-09-02T03:57:19.432Z,2.80
2018-09-02T03:59:47.946Z,2.80
2018-09-02T04:02:16.479Z,2.70
2018-09-02T04:04:45.027Z,2.73
2018-09-02T04:07:13.572Z,2.63
2018-09-02T04:09:42.070Z,2.63
2018-09-02T04:12:10.571Z,2.60
2018-09-02T04:14:39.161Z,2.70
2018-09-02T04:17:07.725Z,2.60
2018-09-02T04:19:36.279Z,2.70
2018-09-02T04:22:04.850Z,3.03
2018-09-02T04:24:33.336Z,2.90
2018-09-02T04:27:01.830Z,2.50
2018-09-02T04:29:30.305Z,3.17
2018-09-02T04:31:58.833Z,2.97
2018-09-02T04:34:27.428Z,2.80
2018-09-02T04:36:55.947Z,2.77
2018-09-02T04:39:24.504Z,3.00
2018-09-02T04:41:53.119Z,3.10
2018-09-02T04:44:21.633Z,2.77
2018-09-02T04:46:50.178Z,2.63
2018-09-02T04:49:18.702Z,2.93
2018-09-02T04:51:47.205Z,2.47
2018-09-02T04:54:15.793Z,2.67
2018-09-02T04:56:44.282Z,3.00
2018-09-02T04:59:12.927Z,2.70
2018-09-02T05:01:41.513Z,2.43
2018-09-02T05:04:10.050Z,2.67
2018-09-02T05:06:38.749Z,2.47
2018-09-02T05:09:07.304Z,2.70
2018-09-02T05:11:35.846Z,2.70
2018-09-02T05:14:04.447Z,3.30
2018-09-02T05:16:32.942Z,2.60
2018-09-02T05:19:01.542Z,2.93
2018-09-02T05:21:30.130Z,2.97
2018-09-02T05:23:58.671Z,2.60
2018-09-02T05:26:27.187Z,2.73
2018-09-02T05:28:55.656Z,2.80
2018-09-02T05:31:24.258Z,2.60
2018-09-02T05:33:52.827Z,2.63
2018-09-02T05:36:21.407Z,2.83
2018-09-02T05:38:49.985Z,2.53
2018-09-02T05:41:18.531Z,2.90
2018-09-02T05:43:47.108Z,3.10
2018-09-02T05:46:15.684Z,2.90
2018-09-02T05:48:44.180Z,3.00
2018-09-02T05:51:12.725Z,2.67
2018-09-02T05:53:41.300Z,2.80
2018-09-02T05:56:09.857Z,2.80
2018-09-02T05:58:38.392Z,2.50
2018-09-02T06:01:06.922Z,2.93
2018-09-02T06:03:35.532Z,2.90
2018-09-02T06:06:04.179Z,2.90
2018-09-02T06:08:32.738Z,2.87
2018-09-02T06:11:01.303Z,2.80
2018-09-02T06:13:29.886Z,3.00
2018-09-02T06:15:58.491Z,3.07
2018-09-02T06:18:27.102Z,3.00
2018-09-02T06:20:55.682Z,2.93
2018-09-02T06:23:24.256Z,3.00
2018-09-02T06:25:52.799Z,3.10
2018-09-02T06:28:21.350Z,2.93
2018-09-02T06:30:49.931Z,3.20
2018-09-02T06:33:18.447Z,3.00
2018-09-02T06:35:48.555Z,3.03
2018-09-02T06:38:17.131Z,2.70
2018-09-02T06:40:45.703Z,2.70
2018-09-02T06:43:14.305Z,2.70
2018-09-02T06:45:42.953Z,2.57
2018-09-02T06:48:11.687Z,2.57
2018-09-02T06:50:40.238Z,3.00
2018-09-02T06:53:08.839Z,3.03
2018-09-02T06:55:37.377Z,2.67
2018-09-02T06:58:14.086Z,2.73
2018-09-02T07:00:47.717Z,2.83
2018-09-02T07:03:18.786Z,2.73
2018-09-02T07:05:48.614Z,2.90
2018-09-02T07:08:17.884Z,3.03
2018-09-02T07:10:46.365Z,2.67
2018-09-02T07:13:14.902Z,2.77
2018-09-02T07:15:43.433Z,3.00
2018-09-02T07:18:11.958Z,2.87
2018-09-02T07:20:40.453Z,2.80
2018-09-02T07:23:08.975Z,3.10
2018-09-02T07:25:37.488Z,2.50
2018-09-02T07:28:06.158Z,2.50
2018-09-02T07:30:34.671Z,2.80
2018-09-02T07:33:03.295Z,3.00
2018-09-02T07:35:31.893Z,2.70
2018-09-02T07:38:00.469Z,2.67
2018-09-02T07:40:28.980Z,3.17
2018-09-02T07:42:57.559Z,2.90
2018-09-02T07:45:26.051Z,2.47
2018-09-02T07:47:54.569Z,2.97
2018-09-02T07:50:23.075Z,3.03
2018-09-02T07:52:51.586Z,2.60
2018-09-02T07:55:20.429Z,2.70
2018-09-02T07:57:49.527Z,2.80
2018-09-02T08:00:18.098Z,2.50
2018-09-02T08:02:46.673Z,3.40
2018-09-02T08:05:15.107Z,3.00
2018-09-02T08:07:43.596Z,3.57
2018-09-02T08:10:12.065Z,3.17
2018-09-02T08:12:40.614Z,3.07
2018-09-02T08:15:09.086Z,4.57
2018-09-02T08:17:37.563Z,5.20
2018-09-02T08:20:06.270Z,5.23
2018-09-02T08:22:35.653Z,5.23
2018-09-02T08:25:04.214Z,5.63
2018-09-02T08:27:32.738Z,5.77
2018-09-02T08:30:01.215Z,5.80
2018-09-02T08:32:29.698Z,5.63
2018-09-02T08:34:58.162Z,5.67
2018-09-02T08:37:26.706Z,5.30
2018-09-02T08:39:55.238Z,5.30
2018-09-02T08:42:23.724Z,5.77
2018-09-02T08:44:52.235Z,5.60
2018-09-02T08:47:20.702Z,5.57
2018-09-02T08:49:49.192Z,4.93
2018-09-02T08:52:17.670Z,5.10
2018-09-02T08:54:46.162Z,5.23
2018-09-02T08:57:14.639Z,4.67
2018-09-02T08:59:43.135Z,4.73
2018-09-02T09:02:11.603Z,4.83
2018-09-02T09:04:40.068Z,4.77
2018-09-02T09:07:08.570Z,6.07
2018-09-02T09:09:37.042Z,5.30
2018-09-02T09:12:05.525Z,4.90
2018-09-02T09:14:34.010Z,5.17
2018-09-02T09:17:02.614Z,6.10
2018-09-02T09:19:31.078Z,5.50
2018-09-02T09:21:59.624Z,5.27
2018-09-02T09:24:28.180Z,6.03
2018-09-02T09:26:56.713Z,4.70
2018-09-02T09:29:25.316Z,4.87
2018-09-02T09:31:53.856Z,4.77
2018-09-02T09:34:22.422Z,4.40
2018-09-02T09:36:50.969Z,4.60
2018-09-02T09:39:19.474Z,4.83
2018-09-02T09:41:47.967Z,5.17
2018-09-02T09:44:16.500Z,5.10
2018-09-02T09:46:45.091Z,5.90
2018-09-02T09:49:13.698Z,5.77
2018-09-02T09:51:42.505Z,5.50
2018-09-02T09:54:11.025Z,5.97
2018-09-02T09:56:39.698Z,6.50
2018-09-02T09:59:08.243Z,5.50
2018-09-02T10:01:36.775Z,6.97
2018-09-02T10:04:05.339Z,6.50
2018-09-02T10:06:33.892Z,6.53
2018-09-02T10:09:02.442Z,8.87
2018-09-02T10:11:31.034Z,10.37
2018-09-02T10:13:59.575Z,8.00
2018-09-02T10:16:28.138Z,7.37
2018-09-02T10:18:56.634Z,6.50
2018-09-02T10:21:25.189Z,8.03
2018-09-02T10:23:53.694Z,9.40
2018-09-02T10:26:22.235Z,9.30
2018-09-02T10:28:50.810Z,8.80
2018-09-02T10:31:19.367Z,8.07
2018-09-02T10:33:48.000Z,10.70
2018-09-02T10:36:16.643Z,14.83
2018-09-02T10:38:45.152Z,15.97
2018-09-02T10:41:13.810Z,12.27
2018-09-02T10:43:42.231Z,13.33
2018-09-02T10:46:10.704Z,14.20
2018-09-02T10:48:39.222Z,13.13
2018-09-02T10:51:07.786Z,13.43
2018-09-02T10:53:36.341Z,15.03
2018-09-02T10:56:04.832Z,13.67
2018-09-02T10:58:33.293Z,12.97
2018-09-02T11:01:01.774Z,13.90
2018-09-02T11:03:30.266Z,13.37
2018-09-02T11:05:58.795Z,13.17
2018-09-02T11:08:27.276Z,13.77
2018-09-02T11:10:55.822Z,15.17
2018-09-02T11:13:24.352Z,14.67
2018-09-02T11:15:52.846Z,13.77
2018-09-02T11:18:21.386Z,13.53
2018-09-02T11:20:49.871Z,13.40
2018-09-02T11:23:18.416Z,13.13
2018-09-02T11:25:46.970Z,12.50
2018-09-02T11:28:15.467Z,12.43
2018-09-02T11:30:43.930Z,14.17
2018-09-02T11:33:12.545Z,13.87
2018-09-02T11:35:41.028Z,12.23
2018-09-02T11:38:09.504Z,12.33
2018-09-02T11:40:37.984Z,11.87
2018-09-02T11:43:06.781Z,13.00
2018-09-02T11:45:35.270Z,11.50
2018-09-02T11:48:03.761Z,14.03
2018-09-02T11:50:32.259Z,14.17
2018-09-02T11:53:00.741Z,12.67
2018-09-02T11:55:29.239Z,12.23
2018-09-02T11:57:57.773Z,15.43
2018-09-02T12:00:27.082Z,13.73
2018-09-02T12:02:56.019Z,13.13
2018-09-02T12:05:24.746Z,12.73
2018-09-02T12:07:53.412Z,14.60
2018-09-02T12:10:22.210Z,17.90
2018-09-02T12:12:50.868Z,17.63
2018-09-02T12:15:19.585Z,16.87
2018-09-02T12:17:48.320Z,14.20
2018-09-02T12:20:16.898Z,16.30
2018-09-02T12:22:45.693Z,15.70
2018-09-02T12:25:14.191Z,15.93
2018-09-02T12:27:42.687Z,16.47
2018-09-02T12:30:11.174Z,14.70
2018-09-02T12:32:39.843Z,15.27
2018-09-02T12:35:08.345Z,14.30
2018-09-02T12:37:36.834Z,12.43
2018-09-02T12:40:05.317Z,13.57
2018-09-02T12:42:33.944Z,13.70
2018-09-02T12:45:02.624Z,13.70
2018-09-02T12:47:31.129Z,13.40
2018-09-02T12:49:59.597Z,12.43
2018-09-02T12:52:28.102Z,13.50
2018-09-02T12:54:56.644Z,11.93
2018-09-02T12:57:25.166Z,12.03
2018-09-02T12:59:53.652Z,12.63
2018-09-02T13:02:22.118Z,16.47
2018-09-02T13:04:50.603Z,13.80
2018-09-02T13:07:19.135Z,12.83
2018-09-02T13:09:47.650Z,11.17
2018-09-02T13:12:16.165Z,12.63
2018-09-02T13:14:45.075Z,12.93
2018-09-02T13:17:13.557Z,10.40
2018-09-02T13:19:42.084Z,10.27
2018-09-02T13:22:10.570Z,11.43
2018-09-02T13:24:39.177Z,13.20
2018-09-02T13:27:07.616Z,13.27
2018-09-02T13:29:36.151Z,15.07
2018-09-02T13:32:04.726Z,14.00
2018-09-02T13:34:33.212Z,12.73
2018-09-02T13:37:01.762Z,12.47
2018-09-02T13:39:30.246Z,12.37
2018-09-02T13:41:58.765Z,14.00
2018-09-02T13:44:27.242Z,14.37
2018-09-02T13:46:55.885Z,14.40
2018-09-02T13:49:24.399Z,16.50
2018-09-02T13:51:52.896Z,17.37
2018-09-02T13:54:21.430Z,13.73
2018-09-02T13:56:49.894Z,12.70
2018-09-02T13:59:18.365Z,11.53
2018-09-02T14:01:46.855Z,11.50
2018-09-02T14:04:15.321Z,11.47
2018-09-02T14:06:43.994Z,11.37
2018-09-02T14:09:12.479Z,13.13
2018-09-02T14:11:40.968Z,13.03
2018-09-02T14:14:09.463Z,13.63
2018-09-02T14:16:37.961Z,11.73
2018-09-02T14:19:06.440Z,12.73
2018-09-02T14:21:35.051Z,12.97
2018-09-02T14:24:03.551Z,11.67
2018-09-02T14:26:32.127Z,12.97
2018-09-02T14:29:00.714Z,11.50
2018-09-02T14:31:29.203Z,11.73
2018-09-02T14:33:57.698Z,12.53
2018-09-02T14:36:26.242Z,12.00
2018-09-02T14:38:54.740Z,11.57
2018-09-02T14:41:23.234Z,11.83
2018-09-02T14:43:51.871Z,12.17
2018-09-02T14:46:20.306Z,12.53
2018-09-02T14:48:48.776Z,11.67
2018-09-02T14:51:17.246Z,12.87
2018-09-02T14:53:45.747Z,10.37
2018-09-02T14:56:14.231Z,10.90
2018-09-02T14:58:42.882Z,11.30
2018-09-02T15:01:11.471Z,9.17
2018-09-02T15:03:39.950Z,9.37
2018-09-02T15:06:08.526Z,9.57
2018-09-02T15:08:37.004Z,8.57
2018-09-02T15:11:05.494Z,9.33
2018-09-02T15:13:34.051Z,9.17
2018-09-02T15:16:02.601Z,9.40
2018-09-02T15:18:31.151Z,9.63
2018-09-02T15:20:59.716Z,9.93
2018-09-02T15:23:28.197Z,9.60
2018-09-02T15:25:56.789Z,9.57
2018-09-02T15:28:25.411Z,9.63
2018-09-02T15:30:53.898Z,9.87
2018-09-02T15:33:22.445Z,10.63
2018-09-02T15:35:51.055Z,8.27
2018-09-02T15:38:19.679Z,8.50
2018-09-02T15:40:48.165Z,10.00
2018-09-02T15:43:16.715Z,9.67
2018-09-02T15:45:45.346Z,8.37
2018-09-02T15:48:14.746Z,9.87
2018-09-02T15:50:43.266Z,8.63
2018-09-02T15:53:12.136Z,8.77
2018-09-02T15:55:41.142Z,8.90
2018-09-02T15:58:09.634Z,8.97
2018-09-02T16:00:38.123Z,9.10
2018-09-02T16:03:06.652Z,8.83
2018-09-02T16:05:35.178Z,8.60
2018-09-02T16:08:03.661Z,8.93
2018-09-02T16:10:32.146Z,9.23
2018-09-02T16:13:00.997Z,8.87
2018-09-02T16:15:29.539Z,8.30
2018-09-02T16:17:58.046Z,8.40
2018-09-02T16:20:26.522Z,8.40
2018-09-02T16:22:55.016Z,9.03
2018-09-02T16:25:23.514Z,8.43
2018-09-02T16:27:52.007Z,8.20
2018-09-02T16:30:20.650Z,8.33
2018-09-02T16:32:49.207Z,8.37
2018-09-02T16:35:17.715Z,7.40
2018-09-02T16:37:46.206Z,8.33
2018-09-02T16:40:14.737Z,8.40
2018-09-02T16:42:43.274Z,9.17
2018-09-02T16:45:11.819Z,8.07
2018-09-02T16:47:40.371Z,7.70
2018-09-02T16:50:08.855Z,8.17
2018-09-02T16:52:37.359Z,8.50
2018-09-02T16:55:05.983Z,8.47
2018-09-02T16:57:34.455Z,8.00
2018-09-02T17:00:02.991Z,8.37
2018-09-02T17:02:31.527Z,8.63
2018-09-02T17:05:04.303Z,7.83
2018-09-02T17:07:32.837Z,9.10
2018-09-02T17:10:01.357Z,9.20
2018-09-02T17:12:29.870Z,10.20
2018-09-02T17:14:58.363Z,9.50
2018-09-02T17:17:26.872Z,9.10
2018-09-02T17:19:57.320Z,9.97
2018-09-02T17:22:25.802Z,8.50
2018-09-02T17:24:54.344Z,8.77
2018-09-02T17:27:22.867Z,8.07
2018-09-02T17:29:51.340Z,8.73
2018-09-02T17:32:21.365Z,8.50
2018-09-02T17:34:49.862Z,8.63
2018-09-02T17:37:18.356Z,8.10
2018-09-02T17:39:46.843Z,8.53
2018-09-02T17:42:15.333Z,7.70
2018-09-02T17:44:43.829Z,7.77
2018-09-02T17:47:12.315Z,7.70
2018-09-02T17:49:40.815Z,8.00
2018-09-02T17:52:09.304Z,8.00
2018-09-02T17:54:37.835Z,8.13
2018-09-02T17:57:06.315Z,8.07
2018-09-02T17:59:34.835Z,8.03
2018-09-02T18:02:03.381Z,7.80
2018-09-02T18:04:31.891Z,7.77
2018-09-02T18:07:00.473Z,7.50
2018-09-02T18:09:28.942Z,7.80
2018-09-02T18:11:57.416Z,7.63
2018-09-02T18:14:25.923Z,7.53
2018-09-02T18:16:54.466Z,7.43
2018-09-02T18:19:22.938Z,8.80
2018-09-02T18:21:51.422Z,7.50
2018-09-02T18:24:19.931Z,6.53
2018-09-02T18:26:48.400Z,5.43
2018-09-02T18:29:16.876Z,6.40
2018-09-02T18:31:45.371Z,5.70
2018-09-02T18:34:13.838Z,5.70
2018-09-02T18:36:42.320Z,6.47
2018-09-02T18:39:11.506Z,6.23
2018-09-02T18:41:39.918Z,6.00
2018-09-02T18:44:08.398Z,6.40
2018-09-02T18:46:36.919Z,5.87
2018-09-02T18:49:06.235Z,6.77
2018-09-02T18:51:34.710Z,6.10
2018-09-02T18:54:03.261Z,6.53
2018-09-02T18:56:31.755Z,5.73
2018-09-02T18:59:00.379Z,6.27
2018-09-02T19:01:28.866Z,6.40
2018-09-02T19:03:58.214Z,6.37
2018-09-02T19:06:43.632Z,5.90
2018-09-02T19:09:12.102Z,5.50
2018-09-02T19:11:40.583Z,6.53
2018-09-02T19:14:09.104Z,6.37
2018-09-02T19:16:37.603Z,6.23
2018-09-02T19:19:06.326Z,5.47
2018-09-02T19:21:34.811Z,5.83
2018-09-02T19:24:09.936Z,5.87
2018-09-02T19:26:38.414Z,6.33
2018-09-02T19:29:06.970Z,5.97
2018-09-02T19:31:35.466Z,6.30
2018-09-02T19:34:03.945Z,6.17
2018-09-02T19:36:32.476Z,5.57
2018-09-02T19:39:01.039Z,6.33
2018-09-02T19:41:29.505Z,5.30
2018-09-02T19:43:59.008Z,5.87
2018-09-02T19:46:27.650Z,6.87
2018-09-02T19:48:56.167Z,6.90
2018-09-02T19:51:25.364Z,5.80
2018-09-02T19:53:53.913Z,6.17
2018-09-02T19:56:22.434Z,8.20
2018-09-02T19:58:50.947Z,6.67
2018-09-02T20:01:19.519Z,6.77
2018-09-02T20:03:48.047Z,7.43
2018-09-02T20:06:16.653Z,6.70
2018-09-02T20:08:45.253Z,6.33
2018-09-02T20:11:13.835Z,6.20
2018-09-02T20:13:42.428Z,6.77
2018-09-02T20:16:11.143Z,6.43
2018-09-02T20:18:39.830Z,6.70
2018-09-02T20:21:08.359Z,5.70
2018-09-02T20:23:36.909Z,5.97
2018-09-02T20:26:05.500Z,6.63
2018-09-02T20:28:34.121Z,6.17
2018-09-02T20:31:02.736Z,6.17
2018-09-02T20:33:31.276Z,6.47
2018-09-02T20:35:59.918Z,5.90
2018-09-02T20:38:28.448Z,5.80
2018-09-02T20:40:57.005Z,5.80
2018-09-02T20:43:25.683Z,6.43
2018-09-02T20:45:54.257Z,6.13
2018-09-02T20:48:22.763Z,5.90
2018-09-02T20:50:51.268Z,5.37
2018-09-02T20:53:19.816Z,5.67
2018-09-02T20:55:48.408Z,6.27
2018-09-02T20:58:16.954Z,6.13
2018-09-02T21:00:47.986Z,5.80
2018-09-02T21:03:17.490Z,5.67
2018-09-02T21:05:46.107Z,5.50
2018-09-02T21:08:14.754Z,5.73
2018-09-02T21:10:43.280Z,5.57
2018-09-02T21:13:12.059Z,5.87
2018-09-02T21:15:40.592Z,5.17
2018-09-02T21:18:09.122Z,5.63
2018-09-02T21:20:37.722Z,6.33
2018-09-02T21:23:06.316Z,6.00
2018-09-02T21:25:34.869Z,5.87
2018-09-02T21:28:03.382Z,5.53
2018-09-02T21:30:31.890Z,5.43
2018-09-02T21:33:00.392Z,5.07
2018-09-02T21:35:28.946Z,5.20
2018-09-02T21:37:57.473Z,5.40
2018-09-02T21:40:25.987Z,5.90
2018-09-02T21:42:54.516Z,5.63
2018-09-02T21:45:24.247Z,5.60
2018-09-02T21:47:52.885Z,5.60
2018-09-02T21:50:21.466Z,5.43
2018-09-02T21:52:50.074Z,5.27
2018-09-02T21:55:18.605Z,5.23
2018-09-02T21:57:47.162Z,5.50
2018-09-02T22:00:17.058Z,5.17
2018-09-02T22:02:45.612Z,5.17
2018-09-02T22:05:15.378Z,5.37
2018-09-02T22:07:43.946Z,5.30
2018-09-02T22:10:12.817Z,5.27
2018-09-02T22:12:41.417Z,5.07
2018-09-02T22:15:10.650Z,4.90
2018-09-02T22:17:39.187Z,4.83
2018-09-02T22:20:08.098Z,4.93
2018-09-02T22:22:36.632Z,5.37
2018-09-02T22:25:05.724Z,5.60
2018-09-02T22:27:34.279Z,5.27
2018-09-02T22:30:02.799Z,5.10
2018-09-02T22:32:31.414Z,4.97
2018-09-02T22:34:59.972Z,5.03
2018-09-02T22:37:28.554Z,5.60
2018-09-02T22:39:57.061Z,4.50
2018-09-02T22:42:25.586Z,5.03
2018-09-02T22:44:54.078Z,4.90
2018-09-02T22:47:22.615Z,4.97
2018-09-02T22:49:51.186Z,5.13
2018-09-02T22:52:19.707Z,4.53
2018-09-02T22:54:48.268Z,5.00
2018-09-02T22:57:16.934Z,4.67
2018-09-02T22:59:45.523Z,5.80
2018-09-02T23:02:14.038Z,5.23
2018-09-02T23:04:42.598Z,5.40
2018-09-02T23:07:11.110Z,4.73
2018-09-02T23:09:39.661Z,4.70
2018-09-02T23:12:08.183Z,5.27
2018-09-02T23:14:36.782Z,5.07
2018-09-02T23:17:05.344Z,4.73
2018-09-02T23:19:33.940Z,4.77
2018-09-02T23:22:02.455Z,4.07
2018-09-02T23:24:31.142Z,4.63
2018-09-02T23:26:59.681Z,5.20
2018-09-02T23:29:28.200Z,5.00
2018-09-02T23:31:56.752Z,4.53
2018-09-02T23:34:25.279Z,4.47
2018-09-02T23:36:53.820Z,4.50
2018-09-02T23:39:22.350Z,4.70
2018-09-02T23:41:50.837Z,4.80
2018-09-02T23:44:19.352Z,5.23
2018-09-02T23:46:47.851Z,4.83
2018-09-02T23:49:16.387Z,4.70
2018-09-02T23:51:44.958Z,4.70
2018-09-02T23:54:13.568Z,5.13
2018-09-02T23:56:42.290Z,4.40
2018-09-02T23:59:10.866Z,4.43
